Time;durP1;ratioP1;P1;durP2;ratioP2;P2;SDS_P1;SDS_P2;PMS_P1;PMS_P2;Temp;Humidity;BMP_temperature;BMP_pressure;BME280_temperature;BME280_humidity;BME280_pressure;Samples;Min_cycle;Max_cycle;Signal;HPM_P1;HPM_P2
2022/09/11 00:00:51;;;;;;;3.20;0.30;;;;;;;10.43;100.00;101284.66;5047478;28;20044;-50
2022/09/11 00:03:18;;;;;;;2.40;0.70;;;;;;;10.41;100.00;101284.00;5042962;28;20061;-55
2022/09/11 00:05:44;;;;;;;4.15;0.73;;;;;;;10.34;100.00;101283.03;5041937;28;20144;-53
2022/09/11 00:08:12;;;;;;;0.80;0.43;;;;;;;10.26;100.00;101287.31;5041188;28;20450;-52
2022/09/11 00:10:39;;;;;;;1.25;1.13;;;;;;;10.21;100.00;101286.16;5054728;28;20025;-53
2022/09/11 00:13:06;;;;;;;2.55;0.70;;;;;;;10.17;100.00;101285.69;5050407;28;20095;-50
2022/09/11 00:15:39;;;;;;;0.75;0.63;;;;;;;10.15;100.00;101287.66;5035708;28;20025;-53
2022/09/11 00:18:05;;;;;;;4.78;0.65;;;;;;;10.12;100.00;101290.66;5039637;28;20386;-52
2022/09/11 00:20:32;;;;;;;4.93;1.40;;;;;;;10.10;100.00;101284.69;5052932;28;20041;-53
2022/09/11 00:23:00;;;;;;;2.95;0.90;;;;;;;10.08;100.00;101284.03;5042987;28;20497;-50
2022/09/11 00:25:26;;;;;;;2.55;0.75;;;;;;;10.06;100.00;101280.72;5040265;28;20032;-52
2022/09/11 00:27:51;;;;;;;4.47;1.38;;;;;;;10.02;100.00;101277.59;5034005;28;20462;-52
2022/09/11 00:30:17;;;;;;;3.30;1.52;;;;;;;9.99;100.00;101271.78;5048978;28;20455;-49
2022/09/11 00:32:42;;;;;;;0.75;0.40;;;;;;;9.96;100.00;101282.72;5043788;28;20039;-49
2022/09/11 00:35:08;;;;;;;0.55;0.30;;;;;;;9.94;100.00;101284.69;5034400;28;20030;-52
2022/09/11 00:37:33;;;;;;;0.98;0.55;;;;;;;9.91;100.00;101287.69;5039379;28;20026;-51
2022/09/11 00:39:59;;;;;;;1.55;0.77;;;;;;;9.87;100.00;101278.44;5054072;28;20055;-49
2022/09/11 00:42:24;;;;;;;1.05;0.50;;;;;;;9.84;100.00;101279.59;5050056;28;20068;-52
2022/09/11 00:44:49;;;;;;;3.70;0.85;;;;;;;9.86;100.00;101287.34;5044233;28;20107;-50
2022/09/11 00:47:17;;;;;;;1.30;1.20;;;;;;;9.89;100.00;101279.09;5040668;28;20032;-54
2022/09/11 00:49:50;;;;;;;2.60;2.05;;;;;;;9.81;100.00;101267.50;5046744;28;20371;-55
2022/09/11 00:52:21;;;;;;;9.73;4.43;;;;;;;9.74;100.00;101279.75;5037135;28;20447;-52
2022/09/11 00:54:53;;;;;;;6.05;3.65;;;;;;;9.69;100.00;101279.44;5033580;28;20026;-51
2022/09/11 00:57:22;;;;;;;11.93;3.15;;;;;;;9.65;100.00;101271.97;5046670;28;20506;-53
2022/09/11 00:59:51;;;;;;;7.03;3.75;;;;;;;9.62;100.00;101265.19;5044166;28;20031;-52
2022/09/11 01:02:21;;;;;;;6.78;2.97;;;;;;;9.61;100.00;101268.84;5052611;28;20131;-55
2022/09/11 01:04:46;;;;;;;3.78;2.85;;;;;;;9.56;100.00;101269.34;5046485;28;20088;-50
2022/09/11 01:07:14;;;;;;;5.45;2.00;;;;;;;9.53;100.00;101272.31;5047315;28;20029;-51
2022/09/11 01:09:41;;;;;;;2.15;1.90;;;;;;;9.54;100.00;101275.78;5045663;28;20033;-55
2022/09/11 01:12:12;;;;;;;3.90;1.88;;;;;;;9.52;100.00;101272.47;5040473;28;20095;-52
2022/09/11 01:14:51;;;;;;;11.45;2.83;;;;;;;9.48;100.00;101274.63;5045900;28;20022;-53
2022/09/11 01:17:39;;;;;;;2.67;1.20;;;;;;;9.48;100.00;101273.81;5043535;28;20045;-51
2022/09/11 01:20:25;;;;;;;1.60;1.17;;;;;;;9.44;100.00;101267.16;5043517;28;20021;-53
2022/09/11 01:23:18;;;;;;;0.75;0.75;;;;;;;9.41;100.00;101273.63;5047171;28;20041;-53
2022/09/11 01:26:02;;;;;;;1.75;0.75;;;;;;;9.36;100.00;101266.16;5050735;28;20243;-51
2022/09/11 01:28:51;;;;;;;3.28;0.95;;;;;;;9.33;100.00;101270.97;5042783;28;20037;-52
2022/09/11 01:31:22;;;;;;;2.25;0.65;;;;;;;9.29;100.00;101270.47;5038402;28;20087;-48
2022/09/11 01:33:58;;;;;;;;;;;;;;;9.26;100.00;101265.50;5046300;28;20040;-53
2022/09/11 01:36:33;;;;;;;2.05;0.75;;;;;;;9.26;100.00;101269.97;5029293;28;20366;-51
2022/09/11 01:39:01;;;;;;;4.00;0.43;;;;;;;9.23;100.00;101265.81;5038903;28;20124;-51
2022/09/11 01:41:30;;;;;;;0.28;0.28;;;;;;;9.20;100.00;101266.16;5048521;28;20032;-51
2022/09/11 01:44:02;;;;;;;2.03;0.95;;;;;;;9.17;100.00;101266.47;5044154;28;20037;-51
2022/09/11 01:46:34;;;;;;;4.93;0.60;;;;;;;9.17;100.00;101269.13;5036733;28;20411;-52
2022/09/11 01:49:08;;;;;;;2.92;0.47;;;;;;;9.22;100.00;101269.47;5038882;28;20029;-52
2022/09/11 01:51:36;;;;;;;1.90;0.75;;;;;;;9.23;100.00;101272.94;5042101;28;20024;-54
2022/09/11 01:54:06;;;;;;;2.03;1.38;;;;;;;9.20;100.00;101275.91;5050847;28;20556;-52
2022/09/11 01:56:36;;;;;;;5.47;1.08;;;;;;;9.15;100.00;101276.41;5039619;28;20381;-53
2022/09/11 01:59:07;;;;;;;0.70;0.40;;;;;;;9.11;100.00;101272.41;5044719;28;20028;-53
2022/09/11 02:01:35;;;;;;;2.03;0.73;;;;;;;9.07;100.00;101271.09;5046448;28;20470;-51
2022/09/11 02:04:07;;;;;;;1.35;0.73;;;;;;;9.07;100.00;101273.72;5047119;28;20180;-50
2022/09/11 02:06:51;;;;;;;2.47;0.90;;;;;;;9.05;100.00;101270.41;5037163;28;20048;-53
2022/09/11 02:09:21;;;;;;;1.77;0.63;;;;;;;9.01;100.00;101267.28;5049165;28;20039;-50
2022/09/11 02:11:50;;;;;;;3.88;0.88;;;;;;;9.00;100.00;101268.25;5038875;28;20481;-49
2022/09/11 02:14:25;;;;;;;0.40;0.40;;;;;;;8.98;100.00;101266.75;5037809;28;20513;-51
2022/09/11 02:17:12;;;;;;;4.82;0.80;;;;;;;8.98;100.00;101272.88;5049764;28;20485;-50
2022/09/11 02:19:38;;;;;;;5.40;0.40;;;;;;;8.98;100.00;101272.03;5042349;28;20028;-50
2022/09/11 02:22:04;;;;;;;2.13;0.30;;;;;;;8.95;100.00;101270.56;5048548;28;20096;-50
2022/09/11 02:24:29;;;;;;;3.88;1.42;;;;;;;8.88;100.00;101267.72;5044667;28;20116;-49
2022/09/11 02:27:02;;;;;;;1.50;0.70;;;;;;;8.84;100.00;101276.97;5041854;28;20041;-52
2022/09/11 02:29:28;;;;;;;1.80;0.98;;;;;;;8.83;100.00;101264.75;5048902;28;20371;-52
2022/09/11 02:31:54;;;;;;;1.08;0.38;;;;;;;8.83;100.00;101270.03;5047622;28;20039;-49
2022/09/11 02:34:33;;;;;;;1.40;0.50;;;;;;;8.86;100.00;101275.00;5044294;28;20027;-48
2022/09/11 02:37:17;;;;;;;2.08;0.30;;;;;;;8.88;100.00;101266.88;5043284;28;20068;-50
2022/09/11 02:40:29;;;;;;;12.10;0.77;;;;;;;8.89;100.00;101274.66;5033104;28;20545;-50
2022/09/11 02:43:09;;;;;;;;;;;;;;;8.89;100.00;101271.19;5038239;28;20440;-51
2022/09/11 02:46:01;;;;;;;4.72;0.28;;;;;;;8.86;100.00;101284.75;5039597;28;19924;-50
2022/09/11 02:48:26;;;;;;;;;;;;;;;8.84;100.00;101274.31;5045102;28;20028;-52
2022/09/11 02:51:34;;;;;;;0.68;0.38;;;;;;;8.85;100.00;101278.59;5035849;28;20322;-49
2022/09/11 02:54:08;;;;;;;0.55;0.55;;;;;;;8.86;100.00;101279.47;5037444;28;20033;-53
2022/09/11 02:56:41;;;;;;;5.93;0.20;;;;;;;8.88;100.00;101278.31;5042248;28;20592;-52
2022/09/11 02:59:16;;;;;;;0.40;0.30;;;;;;;8.89;100.00;101274.66;5044442;28;20065;-53
2022/09/11 03:01:54;;;;;;;6.45;1.40;;;;;;;8.91;100.00;101264.75;5043935;28;20076;-50
2022/09/11 03:04:21;;;;;;;3.75;0.63;;;;;;;8.92;100.00;101268.22;5043295;28;21246;-50
2022/09/11 03:06:48;;;;;;;4.20;0.30;;;;;;;8.89;100.00;101266.72;5046834;28;20036;-49
2022/09/11 03:09:15;;;;;;;5.13;0.93;;;;;;;8.89;100.00;101265.91;5043190;28;20035;-53
2022/09/11 03:11:41;;;;;;;1.40;0.63;;;;;;;8.88;100.00;101267.72;5037775;28;20032;-52
2022/09/11 03:14:06;;;;;;;1.55;0.47;;;;;;;8.89;100.00;101271.19;5037703;28;20048;-49
2022/09/11 03:16:32;;;;;;;0.50;0.32;;;;;;;8.92;100.00;101269.06;5047727;28;20021;-49
2022/09/11 03:18:57;;;;;;;1.40;0.75;;;;;;;8.95;100.00;101263.44;5040487;28;20037;-52
2022/09/11 03:21:22;;;;;;;0.47;0.20;;;;;;;9.00;100.00;101259.50;5053978;28;20428;-52
2022/09/11 03:23:48;;;;;;;6.75;1.13;;;;;;;9.01;100.00;101261.13;5031667;28;20017;-51
2022/09/11 03:26:13;;;;;;;2.00;0.63;;;;;;;9.01;100.00;101261.13;5040609;28;20139;-49
2022/09/11 03:28:38;;;;;;;1.58;0.68;;;;;;;8.96;100.00;101259.00;5039659;28;20075;-49
2022/09/11 03:31:08;;;;;;;4.63;0.95;;;;;;;8.94;100.00;101261.78;5037512;28;20027;-50
2022/09/11 03:33:33;;;;;;;9.00;1.77;;;;;;;8.98;100.00;101259.63;5048096;28;20509;-50
2022/09/11 03:35:59;;;;;;;2.65;1.42;;;;;;;8.98;100.00;101251.72;5043601;28;20111;-48
2022/09/11 03:38:24;;;;;;;1.10;0.90;;;;;;;8.99;100.00;101252.56;5046615;28;20318;-50
2022/09/11 03:40:50;;;;;;;4.05;1.50;;;;;;;9.00;100.00;101251.56;5035140;28;20525;-53
2022/09/11 03:43:15;;;;;;;2.40;0.88;;;;;;;9.00;100.00;101251.56;5050806;28;20029;-49
2022/09/11 03:45:41;;;;;;;1.33;0.75;;;;;;;8.99;100.00;101252.56;5045676;28;20031;-51
2022/09/11 03:48:06;;;;;;;3.47;0.80;;;;;;;8.99;100.00;101250.72;5041620;28;20059;-50
2022/09/11 03:50:32;;;;;;;1.00;0.88;;;;;;;9.00;100.00;101255.03;5044443;28;20025;-51
2022/09/11 03:52:58;;;;;;;3.92;1.30;;;;;;;9.00;100.00;101255.03;5034199;28;20028;-54
2022/09/11 03:55:23;;;;;;;1.13;0.98;;;;;;;9.00;100.00;101248.91;5044816;28;20040;-54
2022/09/11 03:57:49;;;;;;;1.38;1.05;;;;;;;9.01;100.00;101246.13;5040136;28;20025;-50
2022/09/11 04:00:14;;;;;;;2.83;1.08;;;;;;;9.02;100.00;101250.41;5028484;28;20523;-48
2022/09/11 04:02:40;;;;;;;5.70;1.38;;;;;;;9.04;100.00;101245.78;5042813;28;20026;-48
2022/09/11 04:05:07;;;;;;;1.95;1.17;;;;;;;9.06;100.00;101243.81;5046188;28;20493;-53
2022/09/11 04:07:33;;;;;;;3.38;1.30;;;;;;;9.08;100.00;101251.56;5037728;28;20441;-50
2022/09/11 04:09:59;;;;;;;2.95;2.10;;;;;;;9.11;100.00;101251.25;5041089;28;20030;-50
2022/09/11 04:12:24;;;;;;;2.33;0.88;;;;;;;9.13;100.00;101259.84;5046341;28;20045;-52
2022/09/11 04:14:50;;;;;;;5.68;1.58;;;;;;;9.14;100.00;101254.41;5036715;28;20048;-51
2022/09/11 04:17:16;;;;;;;1.48;1.15;;;;;;;9.18;100.00;101257.53;5051767;28;20033;-51
2022/09/11 04:19:41;;;;;;;2.50;1.80;;;;;;;9.22;100.00;101255.41;5041676;28;20071;-51
2022/09/11 04:22:07;;;;;;;2.20;1.48;;;;;;;9.27;100.00;101253.94;5047634;28;20021;-54
2022/09/11 04:24:33;;;;;;;4.47;2.83;;;;;;;9.33;100.00;101247.16;5035138;28;20391;-54
2022/09/11 04:26:59;;;;;;;3.83;2.03;;;;;;;9.36;100.00;101252.94;5035423;28;20033;-49
2022/09/11 04:29:25;;;;;;;7.70;2.83;;;;;;;9.41;100.00;101249.81;5034858;28;20013;-49
2022/09/11 04:31:51;;;;;;;4.53;2.08;;;;;;;9.39;100.00;101244.66;5039940;28;20062;-50
2022/09/11 04:34:16;;;;;;;2.92;1.42;;;;;;;9.37;100.00;101245.81;5045640;28;20382;-51
2022/09/11 04:36:42;;;;;;;2.78;1.30;;;;;;;9.38;100.00;101258.91;5046292;28;20051;-53
2022/09/11 04:39:08;;;;;;;6.78;2.22;;;;;;;9.43;100.00;101263.69;5043754;28;20029;-49
2022/09/11 04:41:33;;;;;;;1.73;1.58;;;;;;;9.51;100.00;101250.47;5048187;28;20366;-53
2022/09/11 04:43:59;;;;;;;4.72;2.00;;;;;;;9.56;100.00;101253.44;5041698;28;20085;-50
2022/09/11 04:46:25;;;;;;;8.45;3.65;;;;;;;9.64;100.00;101249.16;5043227;28;20025;-49
2022/09/11 04:48:54;;;;;;;8.07;3.45;;;;;;;9.69;100.00;101255.59;5038316;28;20025;-50
2022/09/11 04:51:24;;;;;;;5.82;2.65;;;;;;;9.75;100.00;101252.28;5046238;28;20112;-52
2022/09/11 04:53:50;;;;;;;6.60;2.10;;;;;;;9.77;100.00;101250.28;5041213;28;20375;-54
2022/09/11 04:56:20;;;;;;;4.28;2.97;;;;;;;9.81;100.00;101246.31;5038156;28;20388;-49
2022/09/11 04:58:45;;;;;;;12.75;3.20;;;;;;;9.88;100.00;101256.25;5033411;28;20025;-54
2022/09/11 05:01:15;;;;;;;6.88;2.63;;;;;;;9.90;100.00;101257.72;5041795;28;20063;-54
2022/09/11 05:03:42;;;;;;;6.47;1.80;;;;;;;9.91;100.00;101253.25;5049343;28;20035;-54
2022/09/11 05:06:10;;;;;;;4.72;2.13;;;;;;;9.94;100.00;101259.06;5036661;28;20032;-50
2022/09/11 05:08:36;;;;;;;5.30;2.40;;;;;;;10.00;100.00;101262.84;5053455;28;20028;-48
2022/09/11 05:11:06;;;;;;;8.23;2.85;;;;;;;10.06;100.00;101267.47;5045062;28;20033;-48
2022/09/11 05:13:32;;;;;;;2.55;1.88;;;;;;;10.13;100.00;101273.75;5034545;28;20542;-51
2022/09/11 05:16:01;;;;;;;4.22;2.25;;;;;;;10.17;100.00;101275.09;5052659;28;20194;-52
2022/09/11 05:18:27;;;;;;;7.20;3.10;;;;;;;10.22;100.00;101274.56;5054686;28;20056;-50
2022/09/11 05:21:00;;;;;;;12.30;3.95;;;;;;;10.29;100.00;101277.41;5054417;28;20490;-49
2022/09/11 05:23:26;;;;;;;4.20;3.28;;;;;;;10.31;100.00;101272.75;5044438;28;20111;-50
2022/09/11 05:25:56;;;;;;;8.05;3.20;;;;;;;10.34;100.00;101277.72;5044459;28;20412;-49
2022/09/11 05:28:22;;;;;;;9.00;2.63;;;;;;;10.36;100.00;101275.72;5052010;28;20458;-49
2022/09/11 05:30:48;;;;;;;6.97;3.30;;;;;;;10.39;100.00;101286.00;5043267;28;20116;-50
2022/09/11 05:33:14;;;;;;;15.07;2.30;;;;;;;10.41;100.00;101284.00;5040894;28;20064;-51
2022/09/11 05:35:39;;;;;;;8.32;3.00;;;;;;;10.42;100.00;101278.50;5050935;28;20055;-54
2022/09/11 05:38:05;;;;;;;14.95;4.38;;;;;;;10.47;100.00;101275.34;5041806;28;20079;-50
2022/09/11 05:40:30;;;;;;;9.82;4.00;;;;;;;10.50;100.00;101275.00;5041223;28;20035;-51
2022/09/11 05:42:56;;;;;;;4.82;3.03;;;;;;;10.55;100.00;101279.81;5044503;28;20107;-51
2022/09/11 05:45:21;;;;;;;3.60;2.92;;;;;;;10.59;100.00;101283.78;5050384;28;20025;-51
2022/09/11 05:47:46;;;;;;;7.80;3.90;;;;;;;10.64;100.00;101284.09;5043569;28;20025;-53
2022/09/11 05:50:13;;;;;;;4.85;4.07;;;;;;;10.72;100.00;101288.53;5048444;28;20025;-51
2022/09/11 05:52:38;;;;;;;6.85;4.30;;;;;;;10.81;100.00;101287.50;5041126;28;20025;-49
2022/09/11 05:55:04;;;;;;;7.35;4.18;;;;;;;10.88;100.00;101285.81;5047291;28;20037;-51
2022/09/11 05:57:29;;;;;;;13.30;6.07;;;;;;;10.96;100.00;101291.06;5048477;28;20353;-50
2022/09/11 05:59:54;;;;;;;11.05;4.95;;;;;;;11.02;100.00;101295.69;5047000;28;20411;-48
2022/09/11 06:02:20;;;;;;;10.45;5.22;;;;;;;11.09;100.00;101298.47;5034359;28;20029;-51
2022/09/11 06:04:45;;;;;;;11.35;5.95;;;;;;;11.13;100.00;101284.69;5035222;28;20032;-54
2022/09/11 06:07:10;;;;;;;10.13;5.72;;;;;;;11.22;100.00;101284.63;5046236;28;20047;-52
2022/09/11 06:09:36;;;;;;;11.20;6.18;;;;;;;11.29;100.00;101291.72;5045065;28;20079;-49
2022/09/11 06:12:01;;;;;;;9.95;5.30;;;;;;;11.36;100.00;101291.84;5048066;28;20067;-52
2022/09/11 06:14:27;;;;;;;16.35;5.88;;;;;;;11.44;100.00;101285.66;5042435;28;20041;-50
2022/09/11 06:16:55;;;;;;;8.73;4.65;;;;;;;11.49;100.00;101292.09;5035906;28;20029;-50
2022/09/11 06:19:20;;;;;;;11.85;4.90;;;;;;;11.54;100.00;101300.34;5042922;28;20025;-48
2022/09/11 06:21:46;;;;;;;11.45;6.43;;;;;;;11.60;100.00;101293.50;5034149;28;20087;-48
2022/09/11 06:24:11;;;;;;;11.40;5.72;;;;;;;11.65;100.00;101291.13;5030188;28;20025;-49
2022/09/11 06:26:36;;;;;;;12.63;6.00;;;;;;;11.70;100.00;101295.91;5038233;28;20107;-54
2022/09/11 06:29:02;;;;;;;14.90;7.38;;;;;;;11.78;100.00;101293.19;5042214;28;20541;-50
2022/09/11 06:31:28;;;;;;;12.05;6.43;;;;;;;11.87;100.00;101292.13;5045664;28;20611;-49
2022/09/11 06:33:54;;;;;;;12.88;6.15;;;;;;;11.95;100.00;101292.06;5043653;28;20486;-53
2022/09/11 06:36:22;;;;;;;15.18;6.40;;;;;;;12.05;100.00;101294.44;5045143;28;20039;-52
2022/09/11 06:38:56;;;;;;;16.90;6.85;;;;;;;12.17;100.00;101300.16;5038956;28;20021;-52
2022/09/11 06:41:23;;;;;;;15.43;8.57;;;;;;;12.23;100.00;101299.44;5039097;28;20028;-52
2022/09/11 06:43:49;;;;;;;22.15;6.75;;;;;;;12.30;100.00;101300.34;5036986;28;20056;-51
2022/09/11 06:46:18;;;;;;;18.67;8.73;;;;;;;12.39;100.00;101303.75;5037079;28;20132;-51
2022/09/11 06:48:46;;;;;;;16.60;7.63;;;;;;;12.44;100.00;101304.88;5041341;28;20025;-52
2022/09/11 06:51:16;;;;;;;20.80;8.02;;;;;;;12.52;100.00;101295.13;5039454;28;20700;-51
2022/09/11 06:53:42;;;;;;;21.17;7.65;;;;;;;12.60;100.00;101309.19;5035966;28;20038;-54
2022/09/11 06:56:11;;;;;;;17.42;8.23;;;;;;;12.70;100.00;101305.41;5037592;28;20033;-55
2022/09/11 06:58:38;;;;;;;21.35;8.48;;;;;;;12.79;100.00;101309.63;5036037;28;20037;-52
2022/09/11 07:01:12;;;;;;;26.67;9.23;;;;;;;12.91;100.00;101315.28;5045129;28;20427;-52
2022/09/11 07:03:43;;;;;;;20.25;9.45;;;;;;;13.03;100.00;101314.63;5034953;28;20025;-51
2022/09/11 07:06:08;;;;;;;19.75;8.93;;;;;;;13.13;100.00;101316.16;5038539;28;20017;-54
2022/09/11 07:08:34;;;;;;;20.33;9.00;;;;;;;13.27;100.00;101318.00;5039096;28;20075;-55
2022/09/11 07:11:03;;;;;;;27.52;8.80;;;;;;;13.41;100.00;101318.97;5041206;28;20068;-52
2022/09/11 07:13:30;;;;;;;19.77;10.00;;;;;;;13.50;100.00;101320.47;5040938;28;20071;-55
2022/09/11 07:16:02;;;;;;;22.83;10.50;;;;;;;13.60;100.00;101318.31;5035757;28;20056;-50
2022/09/11 07:18:38;;;;;;;20.55;10.15;;;;;;;13.71;100.00;101325.00;5029821;28;20411;-49
2022/09/11 07:21:07;;;;;;;20.38;10.13;;;;;;;13.76;100.00;101330.59;5039743;28;20071;-50
2022/09/11 07:23:33;;;;;;;19.58;10.80;;;;;;;13.79;100.00;101329.38;5039272;28;20155;-53
2022/09/11 07:26:10;;;;;;;16.00;7.93;;;;;;;13.84;100.00;101325.13;5034654;28;20025;-50
2022/09/11 07:28:39;;;;;;;19.63;8.73;;;;;;;13.91;100.00;101327.81;5036897;28;20029;-50
2022/09/11 07:31:11;;;;;;;27.85;11.30;;;;;;;13.98;100.00;101326.06;5027726;28;20025;-53
2022/09/11 07:33:44;;;;;;;23.17;11.95;;;;;;;14.08;100.00;101318.53;5039241;28;20017;-54
2022/09/11 07:36:30;;;;;;;18.90;9.60;;;;;;;14.21;100.00;101317.81;5035524;28;20032;-51
2022/09/11 07:38:57;;;;;;;25.17;10.07;;;;;;;14.34;100.00;101323.25;5034185;28;20056;-54
2022/09/11 07:41:24;;;;;;;14.43;8.35;;;;;;;14.46;100.00;101330.72;5044309;28;20056;-52
2022/09/11 07:43:59;;;;;;;10.45;7.03;;;;;;;14.54;100.00;101327.91;5031953;28;20086;-53
2022/09/11 07:46:25;;;;;;;19.27;8.15;;;;;;;14.53;100.00;101320.91;5033162;28;20124;-55
2022/09/11 07:48:51;;;;;;;10.75;8.13;;;;;;;14.57;100.00;101333.69;5034338;28;20047;-52
2022/09/11 07:51:18;;;;;;;12.10;7.78;;;;;;;14.60;100.00;101319.94;5036494;28;20377;-57
2022/09/11 07:53:46;;;;;;;11.55;7.32;;;;;;;14.61;100.00;101321.59;5043781;28;20056;-56
2022/09/11 07:56:14;;;;;;;14.40;6.75;;;;;;;14.62;100.00;101317.09;5038301;28;20021;-56
2022/09/11 07:58:41;;;;;;;16.55;9.25;;;;;;;14.62;100.00;101314.41;5044629;28;20025;-57
2022/09/11 08:01:19;;;;;;;16.10;8.63;;;;;;;14.64;100.00;101311.53;5033835;28;20029;-51
2022/09/11 08:03:45;;;;;;;12.18;7.28;;;;;;;14.68;100.00;101310.13;5024945;28;20029;-54
2022/09/11 08:06:13;;;;;;;14.43;8.82;;;;;;;14.74;100.00;101304.81;5029921;28;20416;-56
2022/09/11 08:08:40;;;;;;;11.52;7.18;;;;;;;14.85;100.00;101306.09;5034457;28;20029;-52
2022/09/11 08:11:10;;;;;;;14.13;9.15;;;;;;;14.97;100.00;101293.84;5039742;28;20049;-57
2022/09/11 08:13:35;;;;;;;15.20;7.60;;;;;;;14.98;100.00;101292.81;5035006;28;20666;-55
2022/09/11 08:16:01;;;;;;;12.93;7.80;;;;;;;15.06;100.00;101291.81;5029775;28;20041;-56
2022/09/11 08:18:27;;;;;;;14.85;9.68;;;;;;;15.16;100.00;101288.75;5026472;28;20626;-55
2022/09/11 08:20:53;;;;;;;18.23;7.88;;;;;;;15.25;100.00;101291.00;5034099;28;20056;-53
2022/09/11 08:23:20;;;;;;;13.88;7.85;;;;;;;15.36;100.00;101284.28;5034717;28;20021;-54
2022/09/11 08:25:46;;;;;;;12.38;8.70;;;;;;;15.47;100.00;101283.66;5035054;28;20083;-56
2022/09/11 08:28:11;;;;;;;12.57;7.53;;;;;;;15.58;100.00;101284.91;5034638;28;20032;-59
2022/09/11 08:30:37;;;;;;;12.68;7.97;;;;;;;15.58;100.00;101286.75;5028220;28;20036;-55
2022/09/11 08:33:04;;;;;;;12.80;9.25;;;;;;;15.60;100.00;101282.03;5034933;28;20029;-54
2022/09/11 08:35:31;;;;;;;11.70;8.90;;;;;;;15.64;100.00;101273.41;5030165;28;20370;-61
2022/09/11 08:37:57;;;;;;;13.10;8.25;;;;;;;15.71;100.00;101268.09;5031526;28;20168;-53
2022/09/11 08:40:23;;;;;;;17.00;9.20;;;;;;;15.73;100.00;101267.88;5030121;28;20470;-57
2022/09/11 08:42:51;;;;;;;11.60;7.47;;;;;;;15.78;100.00;101266.25;5024240;28;20041;-52
2022/09/11 08:45:19;;;;;;;13.13;7.97;;;;;;;15.81;100.00;101260.47;5040852;28;20459;-51
2022/09/11 08:47:50;;;;;;;10.27;7.22;;;;;;;15.92;100.00;101259.84;5027585;28;20029;-55
2022/09/11 08:50:26;;;;;;;16.23;9.75;;;;;;;16.01;100.00;101257.78;5032252;28;20037;-57
2022/09/11 08:52:53;;;;;;;11.82;8.18;;;;;;;16.10;100.00;101256.53;5037441;28;20037;-55
2022/09/11 08:55:43;;;;;;;10.40;6.78;;;;;;;16.08;100.00;101260.44;5046443;28;20025;-55
2022/09/11 08:58:31;;;;;;;15.65;8.48;;;;;;;16.08;100.00;101247.06;5039891;28;20049;-57
2022/09/11 09:01:38;;;;;;;11.65;7.63;;;;;;;16.19;100.00;101242.94;5040840;28;20036;-58
2022/09/11 09:04:34;;;;;;;10.32;7.60;;;;;;;16.23;100.00;101244.97;5019413;28;20045;-54
2022/09/11 09:07:04;;;;;;;11.55;7.63;;;;;;;16.29;100.00;101237.97;5038934;28;20296;-59
2022/09/11 09:09:41;;;;;;;9.75;8.15;;;;;;;16.40;100.00;101240.00;5041878;28;20057;-53
2022/09/11 09:12:32;;;;;;;12.40;8.02;;;;;;;16.52;100.00;101242.81;5039840;28;20072;-57
2022/09/11 09:15:00;;;;;;;10.10;7.22;;;;;;;16.55;100.00;101245.91;5048615;28;20119;-55
2022/09/11 09:17:34;;;;;;;10.63;7.13;;;;;;;16.58;100.00;101239.31;5042288;28;20493;-56
2022/09/11 09:20:12;;;;;;;9.27;7.72;;;;;;;16.68;100.00;101242.38;5021037;28;20043;-52
2022/09/11 09:22:53;;;;;;;10.15;7.18;;;;;;;16.74;100.00;101238.81;5046561;28;20371;-58
2022/09/11 09:25:22;;;;;;;9.32;6.45;;;;;;;16.74;100.00;101233.47;5036258;28;20029;-55
2022/09/11 09:28:02;;;;;;;12.48;6.47;;;;;;;16.81;100.00;101235.34;5037659;28;20102;-54
2022/09/11 09:30:34;;;;;;;8.38;6.45;;;;;;;16.88;100.00;101234.28;5037702;28;20032;-57
2022/09/11 09:33:10;;;;;;;;;;;;;;;16.94;100.00;101228.03;5041445;28;20151;-56
2022/09/11 09:35:43;;;;;;;11.02;6.97;;;;;;;16.87;100.00;101226.44;5035277;28;20396;-56
2022/09/11 09:38:13;;;;;;;9.98;6.05;;;;;;;16.82;100.00;101220.91;5043387;28;20022;-53
2022/09/11 09:41:00;;;;;;;10.23;6.28;;;;;;;16.87;100.00;101223.75;5047894;28;20043;-51
2022/09/11 09:43:56;;;;;;;8.38;7.05;;;;;;;16.89;100.00;101227.06;5041346;28;20500;-55
2022/09/11 09:46:40;;;;;;;11.48;7.47;;;;;;;16.99;100.00;101232.75;5044821;28;20037;-54
2022/09/11 09:49:09;;;;;;;13.77;6.38;;;;;;;17.10;100.00;101225.88;5051036;28;20045;-56
2022/09/11 09:51:35;;;;;;;10.02;6.13;;;;;;;17.23;100.00;101236.53;5046624;28;20032;-60
2022/09/11 09:54:01;;;;;;;10.90;7.22;;;;;;;17.31;100.00;101240.78;5027736;28;20083;-56
2022/09/11 09:56:29;;;;;;;12.27;8.48;;;;;;;17.21;100.00;101220.66;5045752;28;20033;-57
2022/09/11 09:59:13;;;;;;;12.27;7.82;;;;;;;17.33;100.00;101228.00;5047455;28;20476;-58
2022/09/11 10:01:44;;;;;;;13.02;7.82;;;;;;;17.40;100.00;101226.09;5042249;28;20040;-57
2022/09/11 10:04:16;;;;;;;10.18;7.78;;;;;;;17.46;100.00;101217.19;5040567;28;20030;-57
2022/09/11 10:06:46;;;;;;;13.90;9.32;;;;;;;17.57;100.00;101213.78;5036597;28;20104;-59
2022/09/11 10:09:24;;;;;;;15.18;8.77;;;;;;;17.70;100.00;101214.69;5048307;28;20108;-57
2022/09/11 10:12:06;;;;;;;11.55;7.03;;;;;;;17.89;100.00;101227.16;5039212;28;20491;-54
2022/09/11 10:14:40;;;;;;;12.82;8.55;;;;;;;18.00;100.00;101218.38;5019614;28;20038;-58
2022/09/11 10:17:05;;;;;;;17.08;8.45;;;;;;;18.09;100.00;101211.66;5023996;28;20035;-58
2022/09/11 10:19:39;;;;;;;12.07;7.70;;;;;;;18.17;100.00;101215.09;5012807;28;20566;-58
2022/09/11 10:22:31;;;;;;;14.55;8.45;;;;;;;18.22;100.00;101204.50;5013894;28;20029;-55
2022/09/11 10:25:17;;;;;;;13.30;7.57;;;;;;;18.16;100.00;101195.47;5013801;28;20075;-53
2022/09/11 10:28:07;;;;;;;11.50;8.93;;;;;;;18.15;100.00;101204.59;5028050;28;20063;-58
2022/09/11 10:30:52;;;;;;;13.10;8.45;;;;;;;18.21;100.00;101205.56;5015265;28;20034;-56
2022/09/11 10:33:22;;;;;;;10.57;6.85;;;;;;;18.35;100.00;101204.34;5016148;28;20501;-54
2022/09/11 10:35:54;;;;;;;15.13;8.10;;;;;;;18.55;100.00;101212.16;5020381;28;20030;-57
2022/09/11 10:38:25;;;;;;;12.75;6.68;;;;;;;18.59;100.00;101196.44;5019217;28;20037;-57
2022/09/11 10:41:18;;;;;;;9.68;4.95;;;;;;;18.52;100.00;101191.94;5015251;28;20029;-57
2022/09/11 10:43:49;;;;;;;6.50;4.45;;;;;;;18.44;100.00;101191.44;5019421;28;20041;-56
2022/09/11 10:46:17;;;;;;;6.07;3.53;;;;;;;18.50;100.00;101185.97;5023880;28;20025;-56
2022/09/11 10:49:12;;;;;;;5.22;4.60;;;;;;;18.73;100.00;101189.81;5016740;28;20033;-56
2022/09/11 10:51:40;;;;;;;5.60;4.30;;;;;;;19.07;100.00;101174.88;5018026;28;20068;-58
2022/09/11 10:54:21;;;;;;;8.32;4.00;;;;;;;19.15;100.00;101177.25;5011385;28;20029;-54
2022/09/11 10:56:57;;;;;;;5.70;4.95;;;;;;;19.07;100.00;101177.56;5028388;28;20151;-57
2022/09/11 10:59:47;;;;;;;7.85;4.28;;;;;;;19.25;100.00;101171.28;5029947;28;20048;-58
2022/09/11 11:02:19;;;;;;;5.75;4.28;;;;;;;19.42;100.00;101149.91;5018061;28;20064;-57
2022/09/11 11:04:46;;;;;;;7.93;5.03;;;;;;;19.24;100.00;101153.53;5009920;28;20030;-52
2022/09/11 11:07:39;;;;;;;10.70;5.38;;;;;;;19.00;100.00;101152.69;5021893;28;20041;-58
2022/09/11 11:10:50;;;;;;;4.57;4.15;;;;;;;19.09;100.00;101153.16;5023725;28;20026;-55
2022/09/11 11:13:28;;;;;;;5.77;4.70;;;;;;;19.37;100.00;101150.63;5013220;28;20054;-54
2022/09/11 11:16:29;;;;;;;7.03;4.15;;;;;;;19.71;100.00;101156.25;5018285;28;20061;-58
2022/09/11 11:19:05;;;;;;;7.50;4.88;;;;;;;19.65;100.00;101138.34;5010937;28;20037;-57
2022/09/11 11:21:56;;;;;;;5.28;4.30;;;;;;;19.46;100.00;101142.19;5018453;28;20825;-56
2022/09/11 11:24:33;;;;;;;5.88;3.55;;;;;;;19.43;100.00;101140.78;5009119;28;20052;-58
2022/09/11 11:27:36;;;;;;;5.40;3.60;;;;;;;19.43;100.00;101138.09;5010745;28;20108;-55
2022/09/11 11:30:17;;;;;;;7.78;3.97;;;;;;;19.47;100.00;101141.97;5013260;28;20529;-58
2022/09/11 11:32:46;;;;;;;8.40;4.20;;;;;;;19.67;100.00;101147.03;5009505;28;20045;-59
2022/09/11 11:35:22;;;;;;;3.95;3.38;;;;;;;20.08;100.00;101133.59;5026347;28;20115;-54